GFLL

Details ICAO GFLL (FNA)
Name FREETOWN LUNGI
Region Sierra Leone
Timezone Africa/Freetown (UTC+0.0)
Plans Departing 44
Arriving 55
Stats Elevation 84 ft / 26 m (AMSL)
Location 8.616443° -13.195489°
Runways 1
Magnetic Variation 7.110° W
Sunrise 2017-12-11 06:58:36 UTC / 2017-12-11 06:58:36 Local
Sunset 2017-12-11 18:36:25 UTC / 2017-12-11 18:36:25 Local
Advertisement - Login to hide

Runways

ID Width Length Bearing (true) Bearing (mag) Surface Threshold Offset Overrun Length
12 150 ft / 46 m 10,507 ft / 3,203 m 107.14° 114.25° Asphalt 0 ft / 0 m 394 ft / 120 m
30 150 ft / 46 m 10,507 ft / 3,203 m 287.14° 294.25° Asphalt 0 ft / 0 m 197 ft / 60 m

Map

Weather


0- 5 10 15 20 25 30 35+ Temperature / ° C

Clouds and Precipitation
Forecast for 2017-12-11 00:00 UTC. Updated an hour ago

Ground ~20,000 ft ~40,000 ft Winds

METAR

GFLL 110000Z 09008KT 4000 HZ NSC 24/20 Q1011

TAF

TAF TAF GFLL 102200Z 1100/1206 03003KT 7000 HZ NSC TEMPO 1104/1108 VRB02KT 5000 BR BKN010 TEMPO 1109/1113 8000 HZ SCT014

Frequencies

Ground 121.90 MHz GND
Tower 118.10 MHz TWR
Tower 121.90 MHz TWR
Approach 119.10 MHz APP
Warning: Do not use this data for real-world aviation or navigation. No guarantee of current accuracy is given.